sensor_id;sensor_type;location;lat;lon;timestamp;temperature;humidity
37786;DHT22;23625;48.784;9.336;2023-02-01T00:01:42;4.50;99.90
37786;DHT22;23625;48.784;9.336;2023-02-01T00:04:07;4.50;99.90
37786;DHT22;23625;48.784;9.336;2023-02-01T00:06:33;4.50;99.90
37786;DHT22;23625;48.784;9.336;2023-02-01T00:08:58;4.50;99.90
37786;DHT22;23625;48.784;9.336;2023-02-01T00:11:24;4.50;99.90
37786;DHT22;23625;48.784;9.336;2023-02-01T00:13:50;4.50;99.90
37786;DHT22;23625;48.784;9.336;2023-02-01T00:16:18;4.60;99.90
37786;DHT22;23625;48.784;9.336;2023-02-01T00:18:46;4.50;99.90
37786;DHT22;23625;48.784;9.336;2023-02-01T00:21:16;4.50;99.90
37786;DHT22;23625;48.784;9.336;2023-02-01T00:23:42;4.40;99.90
37786;DHT22;23625;48.784;9.336;2023-02-01T00:26:15;4.40;99.90
37786;DHT22;23625;48.784;9.336;2023-02-01T00:28:41;4.40;99.90
37786;DHT22;23625;48.784;9.336;2023-02-01T00:31:07;4.40;99.90
37786;DHT22;23625;48.784;9.336;2023-02-01T00:33:33;4.40;99.90
37786;DHT22;23625;48.784;9.336;2023-02-01T00:36:01;4.40;99.90
37786;DHT22;23625;48.784;9.336;2023-02-01T00:38:27;4.60;99.90
37786;DHT22;23625;48.784;9.336;2023-02-01T00:40:54;4.50;99.90
37786;DHT22;23625;48.784;9.336;2023-02-01T00:43:19;4.40;99.90
37786;DHT22;23625;48.784;9.336;2023-02-01T00:45:46;4.40;99.90
37786;DHT22;23625;48.784;9.336;2023-02-01T00:48:12;4.30;99.90
37786;DHT22;23625;48.784;9.336;2023-02-01T00:50:43;4.40;99.90
37786;DHT22;23625;48.784;9.336;2023-02-01T00:53:12;4.30;99.90
37786;DHT22;23625;48.784;9.336;2023-02-01T00:55:38;4.30;99.90
37786;DHT22;23625;48.784;9.336;2023-02-01T00:58:03;4.30;99.90
37786;DHT22;23625;48.784;9.336;2023-02-01T01:00:33;4.30;99.90
37786;DHT22;23625;48.784;9.336;2023-02-01T01:02:59;4.30;99.90
37786;DHT22;23625;48.784;9.336;2023-02-01T01:05:25;4.30;99.90
37786;DHT22;23625;48.784;9.336;2023-02-01T01:07:53;4.40;99.90
37786;DHT22;23625;48.784;9.336;2023-02-01T01:10:18;4.40;99.90
37786;DHT22;23625;48.784;9.336;2023-02-01T01:12:44;4.40;99.90
37786;DHT22;23625;48.784;9.336;2023-02-01T01:15:10;4.50;99.90
37786;DHT22;23625;48.784;9.336;2023-02-01T01:17:36;4.50;99.90
37786;DHT22;23625;48.784;9.336;2023-02-01T01:20:02;4.40;99.90
37786;DHT22;23625;48.784;9.336;2023-02-01T01:22:28;4.40;99.90
37786;DHT22;23625;48.784;9.336;2023-02-01T01:24:53;4.40;99.90
37786;DHT22;23625;48.784;9.336;2023-02-01T01:27:19;4.30;99.90
37786;DHT22;23625;48.784;9.336;2023-02-01T01:29:49;4.40;99.90
37786;DHT22;23625;48.784;9.336;2023-02-01T01:32:15;4.40;99.90
37786;DHT22;23625;48.784;9.336;2023-02-01T01:34:40;4.40;99.90
37786;DHT22;23625;48.784;9.336;2023-02-01T01:37:06;4.30;99.90
37786;DHT22;23625;48.784;9.336;2023-02-01T01:39:31;4.30;99.90
37786;DHT22;23625;48.784;9.336;2023-02-01T01:41:57;4.40;99.90
37786;DHT22;23625;48.784;9.336;2023-02-01T01:47:23;4.40;99.90
37786;DHT22;23625;48.784;9.336;2023-02-01T01:49:50;4.40;99.90
37786;DHT22;23625;48.784;9.336;2023-02-01T01:52:16;4.50;99.90
37786;DHT22;23625;48.784;9.336;2023-02-01T01:54:45;4.50;99.90
37786;DHT22;23625;48.784;9.336;2023-02-01T01:57:16;4.40;99.90
37786;DHT22;23625;48.784;9.336;2023-02-01T01:59:50;4.40;99.90
37786;DHT22;23625;48.784;9.336;2023-02-01T02:02:18;4.50;99.90
37786;DHT22;23625;48.784;9.336;2023-02-01T02:04:44;4.50;99.90
37786;DHT22;23625;48.784;9.336;2023-02-01T02:07:16;4.50;99.90
37786;DHT22;23625;48.784;9.336;2023-02-01T02:09:42;4.50;99.90
37786;DHT22;23625;48.784;9.336;2023-02-01T02:12:09;4.60;99.90
37786;DHT22;23625;48.784;9.336;2023-02-01T02:14:34;4.50;99.90
37786;DHT22;23625;48.784;9.336;2023-02-01T02:19:48;4.40;99.90
37786;DHT22;23625;48.784;9.336;2023-02-01T02:34:57;4.50;99.90
37786;DHT22;23625;48.784;9.336;2023-02-01T02:40:08;4.50;99.90
37786;DHT22;23625;48.784;9.336;2023-02-01T02:42:40;4.50;99.90
37786;DHT22;23625;48.784;9.336;2023-02-01T02:45:30;4.40;99.90
37786;DHT22;23625;48.784;9.336;2023-02-01T02:48:40;4.50;99.90
37786;DHT22;23625;48.784;9.336;2023-02-01T02:51:12;4.50;99.90
37786;DHT22;23625;48.784;9.336;2023-02-01T02:54:05;4.50;99.90
37786;DHT22;23625;48.784;9.336;2023-02-01T02:56:53;4.50;99.90
37786;DHT22;23625;48.784;9.336;2023-02-01T02:59:39;4.50;99.90
37786;DHT22;23625;48.784;9.336;2023-02-01T03:02:26;4.60;99.90
37786;DHT22;23625;48.784;9.336;2023-02-01T03:05:11;4.60;99.90
37786;DHT22;23625;48.784;9.336;2023-02-01T03:13:31;4.60;99.90
37786;DHT22;23625;48.784;9.336;2023-02-01T03:22:14;4.60;99.90
37786;DHT22;23625;48.784;9.336;2023-02-01T03:24:20;4.60;99.90
37786;DHT22;23625;48.784;9.336;2023-02-01T03:27:00;4.60;99.90
37786;DHT22;23625;48.784;9.336;2023-02-01T03:29:31;4.60;99.90
37786;DHT22;23625;48.784;9.336;2023-02-01T03:31:59;4.60;99.90
37786;DHT22;23625;48.784;9.336;2023-02-01T03:34:24;4.60;99.90
37786;DHT22;23625;48.784;9.336;2023-02-01T03:36:59;4.60;99.90
37786;DHT22;23625;48.784;9.336;2023-02-01T03:39:34;4.50;99.90
37786;DHT22;23625;48.784;9.336;2023-02-01T03:42:11;4.50;99.90
37786;DHT22;23625;48.784;9.336;2023-02-01T03:44:49;4.50;99.90
37786;DHT22;23625;48.784;9.336;2023-02-01T03:47:37;4.50;99.90
37786;DHT22;23625;48.784;9.336;2023-02-01T03:50:11;4.50;99.90
37786;DHT22;23625;48.784;9.336;2023-02-01T03:52:47;4.50;99.90
37786;DHT22;23625;48.784;9.336;2023-02-01T03:55:16;4.50;99.90
37786;DHT22;23625;48.784;9.336;2023-02-01T03:57:58;4.50;99.90
37786;DHT22;23625;48.784;9.336;2023-02-01T04:00:27;4.50;99.90
37786;DHT22;23625;48.784;9.336;2023-02-01T04:02:53;4.60;99.90
37786;DHT22;23625;48.784;9.336;2023-02-01T04:05:19;4.50;99.90
37786;DHT22;23625;48.784;9.336;2023-02-01T04:07:45;4.50;99.90
37786;DHT22;23625;48.784;9.336;2023-02-01T04:10:11;4.50;99.90
37786;DHT22;23625;48.784;9.336;2023-02-01T04:12:37;4.60;99.90
37786;DHT22;23625;48.784;9.336;2023-02-01T04:15:04;4.50;99.90
37786;DHT22;23625;48.784;9.336;2023-02-01T04:17:30;4.60;99.90
37786;DHT22;23625;48.784;9.336;2023-02-01T04:19:55;4.70;99.90
37786;DHT22;23625;48.784;9.336;2023-02-01T04:22:21;4.70;99.90
37786;DHT22;23625;48.784;9.336;2023-02-01T04:24:47;4.70;99.90
37786;DHT22;23625;48.784;9.336;2023-02-01T04:27:12;4.70;99.90
37786;DHT22;23625;48.784;9.336;2023-02-01T04:29:38;4.70;99.90
37786;DHT22;23625;48.784;9.336;2023-02-01T04:32:04;4.70;99.90
37786;DHT22;23625;48.784;9.336;2023-02-01T04:34:30;4.60;99.90
37786;DHT22;23625;48.784;9.336;2023-02-01T04:36:56;4.70;99.90
37786;DHT22;23625;48.784;9.336;2023-02-01T04:39:22;4.60;99.90
37786;DHT22;23625;48.784;9.336;2023-02-01T04:41:48;4.60;99.90
37786;DHT22;23625;48.784;9.336;2023-02-01T04:44:15;4.60;99.90
37786;DHT22;23625;48.784;9.336;2023-02-01T04:46:42;4.60;99.90
37786;DHT22;23625;48.784;9.336;2023-02-01T04:49:12;4.60;99.90
37786;DHT22;23625;48.784;9.336;2023-02-01T04:51:39;4.60;99.90
37786;DHT22;23625;48.784;9.336;2023-02-01T04:54:05;4.60;99.90
37786;DHT22;23625;48.784;9.336;2023-02-01T04:56:30;4.60;99.90
37786;DHT22;23625;48.784;9.336;2023-02-01T04:58:56;4.60;99.90
37786;DHT22;23625;48.784;9.336;2023-02-01T05:01:22;4.70;99.90
37786;DHT22;23625;48.784;9.336;2023-02-01T05:03:50;4.70;99.90
37786;DHT22;23625;48.784;9.336;2023-02-01T05:06:15;4.70;99.90
37786;DHT22;23625;48.784;9.336;2023-02-01T05:08:41;4.70;99.90
37786;DHT22;23625;48.784;9.336;2023-02-01T05:11:06;4.70;99.90
37786;DHT22;23625;48.784;9.336;2023-02-01T05:13:32;4.60;99.90
37786;DHT22;23625;48.784;9.336;2023-02-01T05:16:16;4.70;99.90
37786;DHT22;23625;48.784;9.336;2023-02-01T05:18:42;4.70;99.90
37786;DHT22;23625;48.784;9.336;2023-02-01T05:21:08;4.70;99.90
37786;DHT22;23625;48.784;9.336;2023-02-01T05:23:33;4.70;99.90
37786;DHT22;23625;48.784;9.336;2023-02-01T05:26:19;4.70;99.90
37786;DHT22;23625;48.784;9.336;2023-02-01T05:28:44;4.70;99.90
37786;DHT22;23625;48.784;9.336;2023-02-01T05:31:11;4.70;99.90
37786;DHT22;23625;48.784;9.336;2023-02-01T05:33:36;4.70;99.90
37786;DHT22;23625;48.784;9.336;2023-02-01T05:36:02;4.70;99.90
37786;DHT22;23625;48.784;9.336;2023-02-01T05:38:28;4.70;99.90
37786;DHT22;23625;48.784;9.336;2023-02-01T05:40:55;4.70;99.90
37786;DHT22;23625;48.784;9.336;2023-02-01T05:43:21;4.70;99.90
37786;DHT22;23625;48.784;9.336;2023-02-01T05:45:46;4.70;99.90
37786;DHT22;23625;48.784;9.336;2023-02-01T05:48:12;4.80;99.90
37786;DHT22;23625;48.784;9.336;2023-02-01T05:50:37;4.80;99.90
37786;DHT22;23625;48.784;9.336;2023-02-01T05:53:03;4.80;99.90
37786;DHT22;23625;48.784;9.336;2023-02-01T05:55:29;4.80;99.90
37786;DHT22;23625;48.784;9.336;2023-02-01T05:57:54;4.80;99.90
37786;DHT22;23625;48.784;9.336;2023-02-01T06:00:20;4.70;99.90
37786;DHT22;23625;48.784;9.336;2023-02-01T06:02:46;4.80;99.90
37786;DHT22;23625;48.784;9.336;2023-02-01T06:05:11;4.70;99.90
37786;DHT22;23625;48.784;9.336;2023-02-01T06:07:37;4.80;99.90
37786;DHT22;23625;48.784;9.336;2023-02-01T06:10:03;4.80;99.90
37786;DHT22;23625;48.784;9.336;2023-02-01T06:12:29;4.80;99.90
37786;DHT22;23625;48.784;9.336;2023-02-01T06:14:55;4.70;99.90
37786;DHT22;23625;48.784;9.336;2023-02-01T06:17:21;4.70;99.90
37786;DHT22;23625;48.784;9.336;2023-02-01T06:19:46;4.70;99.90
37786;DHT22;23625;48.784;9.336;2023-02-01T06:22:13;4.60;99.90
37786;DHT22;23625;48.784;9.336;2023-02-01T06:24:39;4.60;99.90
37786;DHT22;23625;48.784;9.336;2023-02-01T06:27:06;4.70;99.90
37786;DHT22;23625;48.784;9.336;2023-02-01T06:29:32;4.60;99.90
37786;DHT22;23625;48.784;9.336;2023-02-01T06:31:58;4.60;99.90
37786;DHT22;23625;48.784;9.336;2023-02-01T06:34:24;4.60;99.90
37786;DHT22;23625;48.784;9.336;2023-02-01T06:36:50;4.60;99.90
37786;DHT22;23625;48.784;9.336;2023-02-01T06:39:15;4.60;99.90
37786;DHT22;23625;48.784;9.336;2023-02-01T06:41:42;4.60;99.90
37786;DHT22;23625;48.784;9.336;2023-02-01T06:44:08;4.60;99.90
37786;DHT22;23625;48.784;9.336;2023-02-01T06:46:34;4.60;99.90
37786;DHT22;23625;48.784;9.336;2023-02-01T06:48:59;4.60;99.90
37786;DHT22;23625;48.784;9.336;2023-02-01T06:51:26;4.60;99.90
37786;DHT22;23625;48.784;9.336;2023-02-01T06:53:53;4.30;99.90
37786;DHT22;23625;48.784;9.336;2023-02-01T06:56:19;4.60;99.90
37786;DHT22;23625;48.784;9.336;2023-02-01T06:58:45;4.60;99.90
37786;DHT22;23625;48.784;9.336;2023-02-01T07:01:11;4.60;99.90
37786;DHT22;23625;48.784;9.336;2023-02-01T07:03:37;4.60;99.90
37786;DHT22;23625;48.784;9.336;2023-02-01T07:06:04;4.70;99.90
37786;DHT22;23625;48.784;9.336;2023-02-01T07:08:31;4.70;99.90
37786;DHT22;23625;48.784;9.336;2023-02-01T07:11:04;4.70;99.90
37786;DHT22;23625;48.784;9.336;2023-02-01T07:13:30;4.70;99.90
37786;DHT22;23625;48.784;9.336;2023-02-01T07:16:01;4.70;99.90
37786;DHT22;23625;48.784;9.336;2023-02-01T07:18:28;4.70;99.90
37786;DHT22;23625;48.784;9.336;2023-02-01T07:20:54;4.70;99.90
37786;DHT22;23625;48.784;9.336;2023-02-01T07:23:20;4.70;99.90
37786;DHT22;23625;48.784;9.336;2023-02-01T07:25:47;4.80;99.90
37786;DHT22;23625;48.784;9.336;2023-02-01T07:28:12;4.80;99.90
37786;DHT22;23625;48.784;9.336;2023-02-01T07:30:38;4.80;99.90
37786;DHT22;23625;48.784;9.336;2023-02-01T07:33:03;4.80;99.90
37786;DHT22;23625;48.784;9.336;2023-02-01T07:35:29;4.80;99.90
37786;DHT22;23625;48.784;9.336;2023-02-01T07:37:56;4.80;99.90
37786;DHT22;23625;48.784;9.336;2023-02-01T07:40:22;4.80;99.90
37786;DHT22;23625;48.784;9.336;2023-02-01T07:42:56;4.90;99.90
37786;DHT22;23625;48.784;9.336;2023-02-01T07:45:22;4.90;99.90
37786;DHT22;23625;48.784;9.336;2023-02-01T07:47:48;4.80;99.90
37786;DHT22;23625;48.784;9.336;2023-02-01T07:50:14;4.90;99.90
37786;DHT22;23625;48.784;9.336;2023-02-01T07:52:40;4.90;99.90
37786;DHT22;23625;48.784;9.336;2023-02-01T07:55:06;4.90;99.90
37786;DHT22;23625;48.784;9.336;2023-02-01T07:57:32;4.90;99.90
37786;DHT22;23625;48.784;9.336;2023-02-01T07:59:58;4.90;99.90
37786;DHT22;23625;48.784;9.336;2023-02-01T08:02:42;4.90;99.90
37786;DHT22;23625;48.784;9.336;2023-02-01T08:05:08;4.90;99.90
37786;DHT22;23625;48.784;9.336;2023-02-01T08:07:33;4.90;99.90
37786;DHT22;23625;48.784;9.336;2023-02-01T08:09:59;4.90;99.90
37786;DHT22;23625;48.784;9.336;2023-02-01T08:12:25;4.90;99.90
37786;DHT22;23625;48.784;9.336;2023-02-01T08:14:52;4.90;99.90
37786;DHT22;23625;48.784;9.336;2023-02-01T08:17:19;4.90;99.90
37786;DHT22;23625;48.784;9.336;2023-02-01T08:19:44;4.90;99.90
37786;DHT22;23625;48.784;9.336;2023-02-01T08:22:10;4.90;99.90
37786;DHT22;23625;48.784;9.336;2023-02-01T08:24:35;4.90;99.90
37786;DHT22;23625;48.784;9.336;2023-02-01T08:27:04;5.00;99.90
37786;DHT22;23625;48.784;9.336;2023-02-01T08:29:30;5.00;99.90
37786;DHT22;23625;48.784;9.336;2023-02-01T08:31:55;5.00;99.90
37786;DHT22;23625;48.784;9.336;2023-02-01T08:34:22;5.10;99.90
37786;DHT22;23625;48.784;9.336;2023-02-01T08:36:47;5.10;99.90
37786;DHT22;23625;48.784;9.336;2023-02-01T08:39:13;5.20;99.90
37786;DHT22;23625;48.784;9.336;2023-02-01T08:41:39;5.30;99.90
37786;DHT22;23625;48.784;9.336;2023-02-01T08:44:05;5.30;99.90
37786;DHT22;23625;48.784;9.336;2023-02-01T08:46:31;5.40;99.90
37786;DHT22;23625;48.784;9.336;2023-02-01T08:48:56;5.40;99.90
37786;DHT22;23625;48.784;9.336;2023-02-01T08:51:23;5.50;99.90
37786;DHT22;23625;48.784;9.336;2023-02-01T08:53:49;5.50;99.90
37786;DHT22;23625;48.784;9.336;2023-02-01T08:56:16;5.60;99.90
37786;DHT22;23625;48.784;9.336;2023-02-01T08:58:42;5.60;99.90
37786;DHT22;23625;48.784;9.336;2023-02-01T09:01:10;5.70;99.90
37786;DHT22;23625;48.784;9.336;2023-02-01T09:03:37;5.70;99.90
37786;DHT22;23625;48.784;9.336;2023-02-01T09:06:05;5.80;99.90
37786;DHT22;23625;48.784;9.336;2023-02-01T09:08:32;5.80;99.90
37786;DHT22;23625;48.784;9.336;2023-02-01T09:11:02;5.80;99.90
37786;DHT22;23625;48.784;9.336;2023-02-01T09:13:28;5.80;99.90
37786;DHT22;23625;48.784;9.336;2023-02-01T09:15:54;5.80;99.90
37786;DHT22;23625;48.784;9.336;2023-02-01T09:18:20;5.80;99.90
37786;DHT22;23625;48.784;9.336;2023-02-01T09:20:45;5.80;99.90
37786;DHT22;23625;48.784;9.336;2023-02-01T09:23:11;5.80;99.90
37786;DHT22;23625;48.784;9.336;2023-02-01T09:25:37;5.70;99.90
37786;DHT22;23625;48.784;9.336;2023-02-01T09:28:03;5.80;99.90
37786;DHT22;23625;48.784;9.336;2023-02-01T09:30:32;5.70;99.90
37786;DHT22;23625;48.784;9.336;2023-02-01T09:32:57;5.70;99.90
37786;DHT22;23625;48.784;9.336;2023-02-01T09:35:23;5.70;99.90
37786;DHT22;23625;48.784;9.336;2023-02-01T09:37:48;5.70;99.90
37786;DHT22;23625;48.784;9.336;2023-02-01T09:40:15;5.70;99.90
37786;DHT22;23625;48.784;9.336;2023-02-01T09:48:39;5.70;99.90
37786;DHT22;23625;48.784;9.336;2023-02-01T09:51:16;5.70;99.90
37786;DHT22;23625;48.784;9.336;2023-02-01T09:53:48;5.80;99.90
37786;DHT22;23625;48.784;9.336;2023-02-01T09:56:29;5.80;99.90
37786;DHT22;23625;48.784;9.336;2023-02-01T10:01:42;5.90;99.90
37786;DHT22;23625;48.784;9.336;2023-02-01T10:04:11;5.90;99.90
37786;DHT22;23625;48.784;9.336;2023-02-01T10:07:05;6.00;99.90
37786;DHT22;23625;48.784;9.336;2023-02-01T10:14:56;6.30;99.90
37786;DHT22;23625;48.784;9.336;2023-02-01T10:26:01;6.50;99.90
37786;DHT22;23625;48.784;9.336;2023-02-01T10:28:32;6.70;99.90
37786;DHT22;23625;48.784;9.336;2023-02-01T10:30:59;6.90;99.90
37786;DHT22;23625;48.784;9.336;2023-02-01T10:33:42;6.90;99.90
37786;DHT22;23625;48.784;9.336;2023-02-01T10:36:16;7.00;99.20
37786;DHT22;23625;48.784;9.336;2023-02-01T10:38:43;7.10;99.30
37786;DHT22;23625;48.784;9.336;2023-02-01T10:41:16;7.20;98.30
37786;DHT22;23625;48.784;9.336;2023-02-01T10:43:43;7.20;96.50
37786;DHT22;23625;48.784;9.336;2023-02-01T10:46:10;7.20;97.20
37786;DHT22;23625;48.784;9.336;2023-02-01T10:48:37;7.10;98.30
37786;DHT22;23625;48.784;9.336;2023-02-01T10:51:12;7.20;98.20
37786;DHT22;23625;48.784;9.336;2023-02-01T10:56:12;7.20;98.50
37786;DHT22;23625;48.784;9.336;2023-02-01T10:58:46;7.20;95.30
37786;DHT22;23625;48.784;9.336;2023-02-01T11:01:39;7.20;95.60
37786;DHT22;23625;48.784;9.336;2023-02-01T11:04:09;7.20;94.70
37786;DHT22;23625;48.784;9.336;2023-02-01T11:06:37;7.20;94.20
37786;DHT22;23625;48.784;9.336;2023-02-01T11:16:49;7.10;96.50
37786;DHT22;23625;48.784;9.336;2023-02-01T11:19:17;7.10;94.00
37786;DHT22;23625;48.784;9.336;2023-02-01T11:21:44;7.20;93.00
37786;DHT22;23625;48.784;9.336;2023-02-01T11:24:38;7.20;93.30
37786;DHT22;23625;48.784;9.336;2023-02-01T11:27:14;7.20;92.30
37786;DHT22;23625;48.784;9.336;2023-02-01T11:29:47;7.20;91.90
37786;DHT22;23625;48.784;9.336;2023-02-01T11:32:17;7.20;92.50
37786;DHT22;23625;48.784;9.336;2023-02-01T11:34:47;7.20;94.00
37786;DHT22;23625;48.784;9.336;2023-02-01T11:37:30;7.20;92.40
37786;DHT22;23625;48.784;9.336;2023-02-01T11:40:02;7.30;90.60
37786;DHT22;23625;48.784;9.336;2023-02-01T11:42:29;7.20;92.20
37786;DHT22;23625;48.784;9.336;2023-02-01T11:45:34;7.10;92.10
37786;DHT22;23625;48.784;9.336;2023-02-01T11:48:10;7.20;91.00
37786;DHT22;23625;48.784;9.336;2023-02-01T11:59:00;7.30;89.20
37786;DHT22;23625;48.784;9.336;2023-02-01T12:06:54;7.20;90.90
37786;DHT22;23625;48.784;9.336;2023-02-01T12:12:00;7.20;90.50
37786;DHT22;23625;48.784;9.336;2023-02-01T12:20:22;7.30;83.80
37786;DHT22;23625;48.784;9.336;2023-02-01T12:33:47;7.20;86.10
37786;DHT22;23625;48.784;9.336;2023-02-01T12:37:17;7.20;87.30
37786;DHT22;23625;48.784;9.336;2023-02-01T12:42:32;7.30;83.50
37786;DHT22;23625;48.784;9.336;2023-02-01T12:44:59;7.20;83.90
37786;DHT22;23625;48.784;9.336;2023-02-01T12:47:36;7.20;84.30
37786;DHT22;23625;48.784;9.336;2023-02-01T12:52:53;7.00;87.80
37786;DHT22;23625;48.784;9.336;2023-02-01T12:55:35;7.10;86.80
37786;DHT22;23625;48.784;9.336;2023-02-01T13:00:37;7.20;86.50
37786;DHT22;23625;48.784;9.336;2023-02-01T13:06:26;7.10;90.00
37786;DHT22;23625;48.784;9.336;2023-02-01T13:11:40;7.00;90.60
37786;DHT22;23625;48.784;9.336;2023-02-01T13:14:33;7.00;91.80
37786;DHT22;23625;48.784;9.336;2023-02-01T13:17:00;7.00;93.90
37786;DHT22;23625;48.784;9.336;2023-02-01T13:19:37;6.90;94.70
37786;DHT22;23625;48.784;9.336;2023-02-01T13:22:09;6.90;96.10
37786;DHT22;23625;48.784;9.336;2023-02-01T13:24:45;6.90;96.50
37786;DHT22;23625;48.784;9.336;2023-02-01T13:27:13;6.80;97.20
37786;DHT22;23625;48.784;9.336;2023-02-01T13:33:14;6.80;97.00
37786;DHT22;23625;48.784;9.336;2023-02-01T13:35:54;6.80;97.60
37786;DHT22;23625;48.784;9.336;2023-02-01T13:41:29;6.70;99.40
37786;DHT22;23625;48.784;9.336;2023-02-01T13:44:05;6.80;98.50
37786;DHT22;23625;48.784;9.336;2023-02-01T13:46:41;6.80;98.70
37786;DHT22;23625;48.784;9.336;2023-02-01T13:49:18;6.90;97.30
37786;DHT22;23625;48.784;9.336;2023-02-01T13:51:47;6.80;97.20
37786;DHT22;23625;48.784;9.336;2023-02-01T13:54:43;6.70;96.20
37786;DHT22;23625;48.784;9.336;2023-02-01T13:57:34;6.10;94.00
37786;DHT22;23625;48.784;9.336;2023-02-01T14:00:34;6.90;95.40
37786;DHT22;23625;48.784;9.336;2023-02-01T14:13:37;6.70;99.60
37786;DHT22;23625;48.784;9.336;2023-02-01T14:18:49;6.70;99.30
37786;DHT22;23625;48.784;9.336;2023-02-01T14:21:31;6.70;98.70
37786;DHT22;23625;48.784;9.336;2023-02-01T14:24:01;6.80;98.00
37786;DHT22;23625;48.784;9.336;2023-02-01T14:27:14;6.70;98.80
37786;DHT22;23625;48.784;9.336;2023-02-01T14:29:49;6.70;99.20
37786;DHT22;23625;48.784;9.336;2023-02-01T14:32:21;6.60;99.50
37786;DHT22;23625;48.784;9.336;2023-02-01T14:40:04;6.70;98.40
37786;DHT22;23625;48.784;9.336;2023-02-01T14:58:57;6.80;94.80
37786;DHT22;23625;48.784;9.336;2023-02-01T15:01:26;6.90;93.80
37786;DHT22;23625;48.784;9.336;2023-02-01T15:06:43;6.90;94.20
37786;DHT22;23625;48.784;9.336;2023-02-01T15:09:25;6.90;95.80
37786;DHT22;23625;48.784;9.336;2023-02-01T15:14:38;6.90;96.40
37786;DHT22;23625;48.784;9.336;2023-02-01T15:17:26;6.90;96.60
37786;DHT22;23625;48.784;9.336;2023-02-01T15:19:53;6.80;97.30
37786;DHT22;23625;48.784;9.336;2023-02-01T15:22:19;6.90;96.10
37786;DHT22;23625;48.784;9.336;2023-02-01T15:25:00;6.80;96.10
37786;DHT22;23625;48.784;9.336;2023-02-01T15:27:27;6.90;95.30
37786;DHT22;23625;48.784;9.336;2023-02-01T15:29:53;6.80;96.40
37786;DHT22;23625;48.784;9.336;2023-02-01T15:32:37;6.90;95.10
37786;DHT22;23625;48.784;9.336;2023-02-01T15:35:04;6.80;96.10
37786;DHT22;23625;48.784;9.336;2023-02-01T15:37:30;6.80;97.00
37786;DHT22;23625;48.784;9.336;2023-02-01T15:40:05;6.80;96.70
37786;DHT22;23625;48.784;9.336;2023-02-01T15:42:33;6.80;96.40
37786;DHT22;23625;48.784;9.336;2023-02-01T15:44:59;6.90;96.00
37786;DHT22;23625;48.784;9.336;2023-02-01T15:47:28;6.80;96.90
37786;DHT22;23625;48.784;9.336;2023-02-01T15:49:56;6.90;96.20
37786;DHT22;23625;48.784;9.336;2023-02-01T15:52:41;6.80;96.20
37786;DHT22;23625;48.784;9.336;2023-02-01T15:55:40;6.90;95.70
37786;DHT22;23625;48.784;9.336;2023-02-01T15:58:08;6.80;96.10
37786;DHT22;23625;48.784;9.336;2023-02-01T16:00:53;6.80;96.00
37786;DHT22;23625;48.784;9.336;2023-02-01T16:03:40;6.70;95.80
37786;DHT22;23625;48.784;9.336;2023-02-01T16:06:10;6.70;95.20
37786;DHT22;23625;48.784;9.336;2023-02-01T16:08:36;6.90;93.30
37786;DHT22;23625;48.784;9.336;2023-02-01T16:13:33;6.90;92.70
37786;DHT22;23625;48.784;9.336;2023-02-01T16:15:59;6.80;93.80
37786;DHT22;23625;48.784;9.336;2023-02-01T16:18:25;6.80;93.10
37786;DHT22;23625;48.784;9.336;2023-02-01T16:20:50;6.80;93.10
37786;DHT22;23625;48.784;9.336;2023-02-01T16:23:16;6.80;93.50
37786;DHT22;23625;48.784;9.336;2023-02-01T16:25:42;6.80;93.20
37786;DHT22;23625;48.784;9.336;2023-02-01T16:28:07;6.80;92.60
37786;DHT22;23625;48.784;9.336;2023-02-01T16:30:34;6.80;91.60
37786;DHT22;23625;48.784;9.336;2023-02-01T16:33:01;6.70;92.00
37786;DHT22;23625;48.784;9.336;2023-02-01T16:35:35;6.80;91.30
37786;DHT22;23625;48.784;9.336;2023-02-01T16:38:03;6.80;91.60
37786;DHT22;23625;48.784;9.336;2023-02-01T16:40:34;6.70;92.30
37786;DHT22;23625;48.784;9.336;2023-02-01T16:43:00;6.70;92.90
37786;DHT22;23625;48.784;9.336;2023-02-01T16:45:25;6.70;93.00
37786;DHT22;23625;48.784;9.336;2023-02-01T16:47:54;6.80;92.60
37786;DHT22;23625;48.784;9.336;2023-02-01T16:50:22;6.80;92.60
37786;DHT22;23625;48.784;9.336;2023-02-01T16:52:48;6.80;91.60
37786;DHT22;23625;48.784;9.336;2023-02-01T16:55:15;6.90;91.40
37786;DHT22;23625;48.784;9.336;2023-02-01T16:57:42;6.80;91.30
37786;DHT22;23625;48.784;9.336;2023-02-01T17:00:09;6.60;92.50
37786;DHT22;23625;48.784;9.336;2023-02-01T17:02:35;6.50;93.60
37786;DHT22;23625;48.784;9.336;2023-02-01T17:05:00;6.50;94.60
37786;DHT22;23625;48.784;9.336;2023-02-01T17:07:26;6.50;94.00
37786;DHT22;23625;48.784;9.336;2023-02-01T17:09:52;6.60;92.40
37786;DHT22;23625;48.784;9.336;2023-02-01T17:12:31;6.60;92.60
37786;DHT22;23625;48.784;9.336;2023-02-01T17:14:57;6.60;93.20
37786;DHT22;23625;48.784;9.336;2023-02-01T17:17:27;6.50;94.30
37786;DHT22;23625;48.784;9.336;2023-02-01T17:19:55;6.40;94.90
37786;DHT22;23625;48.784;9.336;2023-02-01T17:22:21;6.50;93.50
37786;DHT22;23625;48.784;9.336;2023-02-01T17:24:47;6.50;94.60
37786;DHT22;23625;48.784;9.336;2023-02-01T17:27:14;6.40;95.10
37786;DHT22;23625;48.784;9.336;2023-02-01T17:29:40;6.50;95.00
37786;DHT22;23625;48.784;9.336;2023-02-01T17:32:17;6.30;98.50
37786;DHT22;23625;48.784;9.336;2023-02-01T17:34:42;6.20;99.90
37786;DHT22;23625;48.784;9.336;2023-02-01T17:39:45;6.10;99.90
37786;DHT22;23625;48.784;9.336;2023-02-01T17:42:20;6.10;99.90
37786;DHT22;23625;48.784;9.336;2023-02-01T17:44:46;6.10;99.90
37786;DHT22;23625;48.784;9.336;2023-02-01T17:47:11;6.10;99.90
37786;DHT22;23625;48.784;9.336;2023-02-01T17:49:37;6.10;99.90
37786;DHT22;23625;48.784;9.336;2023-02-01T17:52:04;6.10;99.90
37786;DHT22;23625;48.784;9.336;2023-02-01T17:54:30;6.20;99.90
37786;DHT22;23625;48.784;9.336;2023-02-01T17:56:55;6.30;99.90
37786;DHT22;23625;48.784;9.336;2023-02-01T17:59:25;6.20;99.90
37786;DHT22;23625;48.784;9.336;2023-02-01T18:01:51;6.10;99.90
37786;DHT22;23625;48.784;9.336;2023-02-01T18:04:18;6.10;99.90
37786;DHT22;23625;48.784;9.336;2023-02-01T18:06:44;6.10;99.90
37786;DHT22;23625;48.784;9.336;2023-02-01T18:09:10;6.00;99.90
37786;DHT22;23625;48.784;9.336;2023-02-01T18:11:35;6.00;99.90
37786;DHT22;23625;48.784;9.336;2023-02-01T18:14:01;6.00;99.90
37786;DHT22;23625;48.784;9.336;2023-02-01T18:16:28;6.00;99.90
37786;DHT22;23625;48.784;9.336;2023-02-01T18:18:54;6.00;99.90
37786;DHT22;23625;48.784;9.336;2023-02-01T18:21:29;6.00;99.90
37786;DHT22;23625;48.784;9.336;2023-02-01T18:23:56;6.00;99.90
37786;DHT22;23625;48.784;9.336;2023-02-01T18:26:22;5.90;99.90
37786;DHT22;23625;48.784;9.336;2023-02-01T18:28:47;5.90;99.90
37786;DHT22;23625;48.784;9.336;2023-02-01T18:31:24;5.90;99.90
37786;DHT22;23625;48.784;9.336;2023-02-01T18:33:53;6.00;99.90
37786;DHT22;23625;48.784;9.336;2023-02-01T18:36:19;6.00;99.90
37786;DHT22;23625;48.784;9.336;2023-02-01T18:38:45;5.90;99.90
37786;DHT22;23625;48.784;9.336;2023-02-01T18:41:18;5.90;99.90
37786;DHT22;23625;48.784;9.336;2023-02-01T18:43:48;5.90;99.90
37786;DHT22;23625;48.784;9.336;2023-02-01T18:46:14;5.90;99.90